Thursday, May 25, 2017, 8:22 AM EDT

KFDK, Frederick, Frederick Municipal Airport

Location: Frederick, MD, United States Lat: 39.417
Local Time: 8:22 AM EDT (12:22 GMT) Lon: -77.374
Time Zone: US/Eastern Elev: 301 ft

Show me the last for .
Show Decoded

2017-05-25 07:48 METAR KFDK 251148Z VRB04KT 2SM RA BKN005 OVC010 14/14 A2956 =
2017-05-25 06:52 METAR KFDK 251052Z 36004KT 2 1/2SM +RA BKN009 OVC023 14/14 A2955 =
2017-05-25 06:50 METAR KFDK 251050Z AUTO 35004KT 4SM +RA SCT009 BKN014 OVC023 13/13 A2955 RMK AO2
                 P0038 =
2017-05-25 06:30 METAR KFDK 251030Z AUTO 36004KT 2SM +RA BKN009 OVC016 14/14 A2954 RMK AO2 P0029
                 =
2017-05-25 06:10 METAR KFDK 251010Z AUTO 06005KT 4SM +RA OVC007 14/14 A2953 RMK AO2 P0007 =
2017-05-25 05:50 METAR KFDK 250950Z AUTO 04005KT 4SM -RA OVC009 14/14 A2954 RMK AO2 P0001 =
2017-05-25 05:30 METAR KFDK 250930Z AUTO 07006KT 10SM -RA OVC009 15/15 A2955 RMK AO2 =
2017-05-25 05:05 METAR KFDK 250905Z AUTO 08007G14KT 10SM -RA OVC009 14/14 A2955 RMK AO2 =
2017-05-25 04:50 METAR KFDK 250850Z AUTO 04005KT 7SM RA OVC009 15/15 A2956 RMK AO2 P0003 =
2017-05-25 04:30 METAR KFDK 250830Z AUTO 04006KT 10SM OVC009 14/14 A2956 RMK AO2 P0001 =
2017-05-25 04:10 METAR KFDK 250810Z AUTO 04005KT 10SM -RA OVC009 14/14 A2957 RMK AO2 =
2017-05-25 03:50 METAR KFDK 250750Z AUTO 03004KT 5SM -RA OVC011 A2959 RMK AO2 P0008 =
2017-05-25 03:30 METAR KFDK 250730Z AUTO 06007KT 10SM -RA OVC011 A2959 RMK AO2 P0005 =
2017-05-25 03:10 METAR KFDK 250710Z AUTO 07006KT 4SM -RA OVC011 A2960 RMK AO2 P0004 =
2017-05-25 02:50 METAR KFDK 250650Z AUTO 06008G14KT 10SM -RA OVC009 A2961 RMK AO2 P0002 =
2017-05-25 02:30 METAR KFDK 250630Z AUTO 06008KT 10SM RA OVC009 A2962 RMK AO2 P0002 =
2017-05-25 02:10 METAR KFDK 250610Z AUTO 07006KT 7SM -RA OVC009 15/15 A2964 RMK AO2 P0001 =
2017-05-25 01:50 METAR KFDK 250550Z AUTO 06006KT 10SM -RA OVC011 15/15 A2965 RMK AO2 P0003 =
2017-05-25 01:30 METAR KFDK 250530Z AUTO 06005KT 10SM -RA OVC011 15/15 A2966 RMK AO2 P0002 =
2017-05-25 01:10 METAR KFDK 250510Z AUTO 05003KT 10SM -RA OVC013 15/15 A2968 RMK AO2 =
2017-05-25 00:50 METAR KFDK 250450Z AUTO 04006KT 10SM -RA OVC015 15/15 A2968 RMK AO2 P0005 =
2017-05-25 00:30 METAR KFDK 250430Z AUTO 06006KT 7SM RA OVC017 15/15 A2969 RMK AO2 P0002 =
2017-05-25 00:10 METAR KFDK 250410Z AUTO 11005KT 10SM -RA OVC019 16/14 A2972 RMK AO2 =
2017-05-24 23:50 METAR KFDK 250350Z AUTO 08004KT 10SM -RA OVC021 16/13 A2972 RMK AO2 =
2017-05-24 23:25 METAR KFDK 250325Z AUTO 07005KT 10SM OVC021 17/13 A2972 RMK AO2 =
2017-05-24 23:10 METAR KFDK 250310Z AUTO 10007G15KT 10SM BKN023 OVC044 17/13 A2971 RMK AO2 =
2017-05-24 22:50 METAR KFDK 250250Z AUTO 08010G15KT 10SM BKN025 OVC044 17/13 A2972 RMK AO2 =
2017-05-24 22:25 METAR KFDK 250225Z AUTO 09005KT 10SM SCT025 OVC046 17/13 A2973 RMK AO2 =
2017-05-24 22:10 METAR KFDK 250210Z AUTO 09004KT 10SM SCT025 OVC046 17/13 A2972 RMK AO2 =
2017-05-24 21:50 METAR KFDK 250150Z AUTO 12010G19KT 10SM BKN025 OVC046 17/13 A2974 RMK AO2 LTG
                 DSNT W =
2017-05-24 21:30 METAR KFDK 250130Z AUTO 10010G19KT 10SM SCT027 OVC046 18/13 A2973 RMK AO2 =
2017-05-24 21:10 METAR KFDK 250110Z AUTO 08005KT 10SM SCT025 OVC046 18/14 A2972 RMK AO2 =
2017-05-24 19:50 METAR KFDK 242350Z 10003KT 10SM BKN023 OVC039 18/16 A2974 =
2017-05-24 18:50 METAR KFDK 242250Z 12004KT 10SM OVC030 18/15 A2974 =
2017-05-24 17:48 METAR KFDK 242148Z 14006KT 10SM BKN023 OVC028 19/16 A2974 =
2017-05-24 16:49 METAR KFDK 242049Z 14010KT 10SM OVC024 19/16 A2976 =
2017-05-24 15:55 METAR KFDK 241955Z 14010KT 10SM OVC028 19/15 A2975 =
2017-05-24 14:55 METAR KFDK 241855Z 14005G14KT 10SM OVC028 A2975 =
2017-05-24 13:47 METAR KFDK 241747Z 16007KT 10SM OVC028 20/15 A2976 =
2017-05-24 12:48 METAR KFDK 241648Z 15008KT 10SM OVC038 21/14 A2975 =
2017-05-24 11:47 METAR KFDK 241547Z 00000KT 10SM BKN028 BKN033 20/14 A2976 =
2017-05-24 10:47 METAR KFDK 241447Z 00000KT 10SM BKN020 BKN050 18/15 A2975 =
2017-05-24 10:22 METAR KFDK 241422Z 00000KT 10SM BKN017 BKN055 18/17 A2977 =
2017-05-24 09:47 METAR KFDK 241347Z 00000KT 7SM SCT013 BKN060 17/16 A2976 =
2017-05-24 08:50 METAR KFDK 241250Z 00000KT 7SM SCT009 SCT013 OVC075 17/17 A2976 =

Support USWX by starting your Amazon purchase here.